New Mighty — 3FMN — position and weather

sailwx.info

Track history (hours):
 
Tides and Currents Weather Stations Pressure Air Temp Water Temp Dewpoint Dewpoint Depression Visibility Wind Speed Wind Dir Waves Ship Positions

New Mighty

Last reported at 2016-Nov-18 01:33 UTC. Time now 2016-Dec-10 14:40 UTC.
Position S 27°01' E 153°57'.
Warning: this ship's position is 22 days out of date.

Length 292 m; draft 15.3 m.

Type: Cargo ship. MMSI: 354199000.

Date/timePositionNaut miles runAvg speedWind from/ knotsBaromVisibWave heightAir tempDewpointWater temp
2016-Nov-18 01:33S 27°01' E 153°57'4510.8
2016-Nov-17 21:20S 27°46' E 153°56'29010.1
2016-Nov-16 16:33S 32°28' E 152°39'4410.6
2016-Nov-16 12:22S 32°56' E 151°58'11 3.9
2016-Nov-16 09:32S 32°53' E 151°46'0 0.0
2016-Nov-16 08:32S 32°53' E 151°46'0 0.0
2016-Nov-16 07:32S 32°53' E 151°46'0 0.0
2016-Nov-16 06:32S 32°53' E 151°46'0 0.0
2016-Nov-16 04:32S 32°53' E 151°46'0 0.0
2016-Nov-16 03:32S 32°53' E 151°46'0 0.0
2016-Nov-16 02:32S 32°53' E 151°46'0 0.0
2016-Nov-16 01:32S 32°53' E 151°46'0 0.0
2016-Nov-15 21:32S 32°53' E 151°46'0 0.0
2016-Nov-15 19:32S 32°53' E 151°46'0 0.0
2016-Nov-15 18:32S 32°53' E 151°46'0 0.0
2016-Nov-15 13:32S 32°53' E 151°46'0 0.0
2016-Nov-15 12:32S 32°53' E 151°46'0 0.0
2016-Nov-15 11:29S 32°53' E 151°46'0 0.0
2016-Nov-15 10:32S 32°53' E 151°46'0 0.0
2016-Nov-15 07:32S 32°53' E 151°46'0 0.0
2016-Nov-15 06:32S 32°53' E 151°46'0 0.0
2016-Nov-15 05:50S 32°53' E 151°46'0 0.0
2016-Nov-15 03:32S 32°53' E 151°46'1 1.3
2016-Nov-15 02:33S 32°54' E 151°46'13 6.6
2016-Nov-15 00:33S 33°01' E 152°00'1011.9
2016-Nov-14 23:41S 32°60' E 152°12'5 1.2
2016-Nov-14 19:31S 33°03' E 152°17'4 2.1
2016-Nov-14 17:33S 33°06' E 152°14'8 8.1
2016-Nov-14 16:33S 32°60' E 152°07'3 2.7
2016-Nov-14 15:33S 32°58' E 152°05'20 5.0
2016-Nov-14 11:33S 32°60' E 152°29'24 1.0
2016-Nov-13 10:33S 33°04' E 152°57'6 2.9
2016-Nov-13 08:33S 33°01' E 152°51'6 2.1
2016-Nov-13 05:33S 32°56' E 152°47'3 0.6
2016-Nov-12 23:34S 32°53' E 152°48'2412.0
2016-Nov-12 21:33S 32°29' E 152°51'27915.4
2016-Nov-12 03:26S 28°04' E 154°29'1413.3
2016-Nov-12 02:24S 27°50' E 154°33'24 3.3
2016-Nov-11 19:16S 27°27' E 154°39'3 0.6
2016-Nov-11 14:28S 27°28' E 154°36'3 0.7
2016-Nov-11 10:31S 27°26' E 154°38'1 0.8
2016-Nov-11 09:31S 27°25' E 154°38'5 1.1
2016-Nov-11 05:25S 27°26' E 154°44'1 1.5
2016-Nov-11 04:31S 27°26' E 154°45'2 1.6
2016-Nov-11 03:28S 27°27' E 154°47'2 1.7
2016-Nov-11 02:31S 27°28' E 154°48'2 1.7
2016-Nov-11 01:25S 27°29' E 154°50'2 1.7
2016-Nov-11 00:31S 27°30' E 154°51'3 1.6
2016-Nov-10 22:31S 27°32' E 154°54'4 1.8
2016-Nov-10 20:25S 27°35' E 154°56'4 1.9
2016-Nov-10 18:19S 27°39' E 154°58'49 1.5
2016-Nov-09 08:26S 27°46' E 154°03'8 8.6
2016-Nov-09 07:33S 27°38' E 154°03'3215.9
2016-Nov-09 05:33S 27°07' E 154°03'1515.3
2016-Nov-09 04:33S 26°51' E 154°03'2814.2
2016-Nov-09 02:33S 26°23' E 154°04'  
Track history (hours):
 
Tides and Currents Weather Stations Pressure Air Temp Water Temp Dewpoint Dewpoint Depression Visibility Wind Speed Wind Dir Waves Ship Positions

New Mighty

Last reported at 2016-Nov-18 01:33 UTC. Time now 2016-Dec-10 14:40 UTC.
Position S 27°01' E 153°57'.
Warning: this ship's position is 22 days out of date.

Length 292 m; draft 15.3 m.

Type: Cargo ship. MMSI: 354199000.

Date/timePositionNaut miles runAvg speedWind from/ knotsBaromVisibWave heightAir tempDewpointWater temp
2016-Nov-18 01:33S 27°01' E 153°57'4510.8
2016-Nov-17 21:20S 27°46' E 153°56'29010.1
2016-Nov-16 16:33S 32°28' E 152°39'4410.6
2016-Nov-16 12:22S 32°56' E 151°58'11 3.9
2016-Nov-16 09:32S 32°53' E 151°46'0 0.0
2016-Nov-16 08:32S 32°53' E 151°46'0 0.0
2016-Nov-16 07:32S 32°53' E 151°46'0 0.0
2016-Nov-16 06:32S 32°53' E 151°46'0 0.0
2016-Nov-16 04:32S 32°53' E 151°46'0 0.0
2016-Nov-16 03:32S 32°53' E 151°46'0 0.0
2016-Nov-16 02:32S 32°53' E 151°46'0 0.0
2016-Nov-16 01:32S 32°53' E 151°46'0 0.0
2016-Nov-15 21:32S 32°53' E 151°46'0 0.0
2016-Nov-15 19:32S 32°53' E 151°46'0 0.0
2016-Nov-15 18:32S 32°53' E 151°46'0 0.0
2016-Nov-15 13:32S 32°53' E 151°46'0 0.0
2016-Nov-15 12:32S 32°53' E 151°46'0 0.0
2016-Nov-15 11:29S 32°53' E 151°46'0 0.0
2016-Nov-15 10:32S 32°53' E 151°46'0 0.0
2016-Nov-15 07:32S 32°53' E 151°46'0 0.0
2016-Nov-15 06:32S 32°53' E 151°46'0 0.0
2016-Nov-15 05:50S 32°53' E 151°46'0 0.0
2016-Nov-15 03:32S 32°53' E 151°46'1 1.3
2016-Nov-15 02:33S 32°54' E 151°46'13 6.6
2016-Nov-15 00:33S 33°01' E 152°00'1011.9
2016-Nov-14 23:41S 32°60' E 152°12'5 1.2
2016-Nov-14 19:31S 33°03' E 152°17'4 2.1
2016-Nov-14 17:33S 33°06' E 152°14'8 8.1
2016-Nov-14 16:33S 32°60' E 152°07'3 2.7
2016-Nov-14 15:33S 32°58' E 152°05'20 5.0
2016-Nov-14 11:33S 32°60' E 152°29'24 1.0
2016-Nov-13 10:33S 33°04' E 152°57'6 2.9
2016-Nov-13 08:33S 33°01' E 152°51'6 2.1
2016-Nov-13 05:33S 32°56' E 152°47'3 0.6
2016-Nov-12 23:34S 32°53' E 152°48'2412.0
2016-Nov-12 21:33S 32°29' E 152°51'27915.4
2016-Nov-12 03:26S 28°04' E 154°29'1413.3
2016-Nov-12 02:24S 27°50' E 154°33'24 3.3
2016-Nov-11 19:16S 27°27' E 154°39'3 0.6
2016-Nov-11 14:28S 27°28' E 154°36'3 0.7
2016-Nov-11 10:31S 27°26' E 154°38'1 0.8
2016-Nov-11 09:31S 27°25' E 154°38'5 1.1
2016-Nov-11 05:25S 27°26' E 154°44'1 1.5
2016-Nov-11 04:31S 27°26' E 154°45'2 1.6
2016-Nov-11 03:28S 27°27' E 154°47'2 1.7
2016-Nov-11 02:31S 27°28' E 154°48'2 1.7
2016-Nov-11 01:25S 27°29' E 154°50'2 1.7
2016-Nov-11 00:31S 27°30' E 154°51'3 1.6
2016-Nov-10 22:31S 27°32' E 154°54'4 1.8
2016-Nov-10 20:25S 27°35' E 154°56'4 1.9
2016-Nov-10 18:19S 27°39' E 154°58'49 1.5
2016-Nov-09 08:26S 27°46' E 154°03'8 8.6
2016-Nov-09 07:33S 27°38' E 154°03'3215.9
2016-Nov-09 05:33S 27°07' E 154°03'1515.3
2016-Nov-09 04:33S 26°51' E 154°03'2814.2
2016-Nov-09 02:33S 26°23' E 154°04'  

Dump ship's entire track history